Overview Statistics Trail Chart Weather Telemetry Raw packets
 

This is the latest recevied weather packets stored in our database for station/object LU4HH-15. If no packets are shown the sender has not sent any weather packets the latest 10 day(s).

<< 9 10 11 12 13 14 15 >>
Time Temp. Humidity Pressure Rain* Wind** Luminosity Snow
1788443441 17.22° C 41% 1026.4 hPa - - - -
1788442540 17.22° C 42% 1026.4 hPa - - - -
1788441638 17.22° C 43% 1026.4 hPa - - - -
1788440737 16.67° C 43% 1026.4 hPa - - - -
1788439836 16.67° C 43% 1026.3 hPa - - - -
1788438936 16.11° C 45% 1026.1 hPa - - - -
1788438034 16.11° C 45% 1026.1 hPa - - - -
1788437133 16.11° C 45% 1025.9 hPa - - - -
1788436232 16.11° C 46% 1025.7 hPa - - - -
1788435331 16.11° C 46% 1025.7 hPa - - - -
1788434430 16.11° C 46% 1025.5 hPa - - - -
1788433529 16.11° C 45% 1025.1 hPa - - - -
1788432626 18.33° C 43% 1024.7 hPa - - - -
1788430926 16.11° C 47% 1024.3 hPa - - - -
1788430025 16.67° C 48% 1024.1 hPa - - - -
1788429124 16.67° C 48% 1024.1 hPa - - - -
1788428255 16.67° C 49% 1023.6 hPa - - - -
1788427353 16.67° C 49% 1023.5 hPa - - - -
1788426453 17.22° C 50% 1023.5 hPa - - - -
1788425552 17.22° C 50% 1023.4 hPa - - - -
1788424651 17.22° C 51% 1023.1 hPa - - - -
1788423750 17.22° C 50% 1023 hPa - - - -
1788422848 17.22° C 51% 1022.9 hPa - - - -
1788421947 17.22° C 51% 1022.9 hPa - - - -
1788421046 17.22° C 51% 1022.7 hPa - - - -

* Rain since midnight (hover to see other rain measurements)
** Current wind speed in m/s (hover to see current wind gust speed)